Hauptseite
Satellitenwetter 15-Tage PrognosenKlimaSeewetter Wirbelstürme Blitz FlughäfenFAQ Newsletter Über uns
Wetter : Europa Afrika Nordamerika Südamerika Asien Australien-Ozeanien Andere
Sprachen Kontakt

Newquay Cornwall, England

Breite: 50-26N, Länge: 005-00W, Höhe: 119 m


METAR: EGHQ 302150Z 18011KT 2500 BR OVC002 14/14 Q1015
TAF: EGHQ 302106Z 3021/3022 17012KT 2000 BR BKN001 PROB40 3021/3022 BKN002

Zeit: 03:52 (03:52 UTC)

Beobachtung

Neuester Wetterbericht von vor 6 Stunden und 2 Minuten, um 21:50 UTC
Wind 11 kt aus Süd
Temperatur 14°C
Luftfeuchtigkeit 100%
Luftdruck 1015 hPa
Sichtweite: 2500 m
Geschlossene Wolkendecke in der Höhe von 200 ft
feuchter Dunst

Maßeinheiten ändern

Prognose

Neuester Wetterbericht von vor 6 Stunden und 46 Minuten, um 21:06 UTC
Gültige Prognose vom 30 um 21 UTC bis 30 um 22 UTC
Wind 12 kt aus Süd
Sichtweite: 2000 m
Durchbrochene Bewölkung in der Höhe von 100 ft
feuchter Dunst
Wahrscheinlichkeit 40%
vom 30 um 21 UTC bis 30 um 22 UTC
Durchbrochene Bewölkung in der Höhe von 200 ft
Die Angaben auf diesen Webseiten unterliegen einer Erklärung über den Haftungsausschluss
Wetter : Europa Afrika Nordamerika Südamerika Asien Australien-Ozeanien Andere
Satellitenwetter 15-Tage PrognosenKlimaSeewetter Wirbelstürme Blitz FlughäfenFAQ Sprachen Kontakt Newsletter Über uns